East Lansing, MI (48824)

3:03 AM EST on December 11, 2016 (GMT -0500)
Flower Pot Neighborhood | | Change Station
Active Advisory: Winter Weather Advisory

Elev 837 ft 42.73 °N, 84.50 °W | Updated 9 seconds ago

Snow
Snow
22.3 °F
Feels Like 22 °F
N
0.0
Wind Variable Wind from SSW
Gusts 0.0 mph

Today
High -- | Low -- °F
--% Chance of Precip.
Yesterday
High -- | Low -- °F
Precip. -- in
Pressure 30.36 in
Visibility 2.5 miles
Clouds Overcast 3200 ft
Windchill 22 °F
Dew Point 16 °F
Humidity 77%
Rainfall 0.00 in
Snow Depth Not available.
7:58 AM 5:04 PM
Waxing Gibbous, 90% visible
METAR KLAN 110753Z 17008KT 2 1/2SM -SN BR OVC032 M06/M08 A3032 RMK AO2 SLP281 P0001 T10561078
Pressure 30.36 in
Visibility 2.5 miles
Clouds Overcast 3200 ft
Windchill 22 °F
Dew Point 16 °F
Humidity 77%
Rainfall 0.00 in
Snow Depth Not available.
7:58 AM 5:04 PM
Waxing Gibbous, 90% visible
METAR KLAN 110753Z 17008KT 2 1/2SM -SN BR OVC032 M06/M08 A3032 RMK AO2 SLP281 P0001 T10561078

10-Day Weather Forecast

Almanac

Astronomy

Dec. 11, 2016 Rise Set
Actual Time
Civil Twilight
Nautical Twilight
Astronomical Twilight
Moon
Length of Visible Light
Length of Day
Tomorrow will be .
, % of the Moon is Illuminated

Today's Extremes

State Highs State Lows

Community

WunderPhotos

Upload Photos

1,956,707 photos uploaded!

WunderBlog® & News

Nearby

Air Quality

  Air Quality AQ Index Pollutant
Not available.

Snow Depth

Station Depth Elevation

Earthquake Activity

City Distance Mag. Time & Date
Minimum magnitude displayed is 2.5.

Coastal Water Temperatures

Place Temperature

Stations

Nearby Weather Stations

Station Location Temp. Windchill Dew Point Humidity Wind Precip. Elev Updated Type
                   

Watches & Warnings

Winter Weather Advisory
Issued: 10:04 PM EST Dec. 10, 2016 – National Weather Service

... Winter Weather Advisory remains in effect until 4 am EST
Monday...

Hazardous weather...

* snow from this evening through Sunday evening before tapering
   off early Monday morning.

* Heaviest snow will fall Sunday morning and afternoon.

* Total accumulations 5 to 9 inches. Locally higher amounts
   possible.

Impacts...

* roads will become snow and slush covered and hazardous.

* Commuting times will be increased.

Precautionary/preparedness actions...

* the Michigan Department of Transportation reminds motorists
   to adjust speeds based on the conditions... and to take it
   slow in ice and snow.

* Weather preparedness information is available on line at
   www.Ready.Gov/winter.